PATK/TKA METAR and TAF weather

Enter ICAO airport designator
Station Type Date Time Source
PATK METAR 2020/11/27 13:53 UTC NOAA

PATK 271353Z AUTO 01004KT 10SM FEW060 SCT070 OVC095 M02/M04 A2946 RMK AO2 SLP985 T10171044 TSNO


Station Type Date Time Source
PATK Decoded METAR 2020/11/27 13:53 UTC NOAA

TALKEETNA AIRPORT, AK, United States (PATK) 62-19N 150-06W 109M
Nov 27, 2020 - 08:53 AM EST / 2020.11.27 1353 UTC
Wind: from the N (010 degrees) at 5 MPH (4 KT):0
Visibility: 10 mile(s):0
Sky conditions: overcast
Temperature: 28.9 F (-1.7 C)
Windchill: 23 F (-5 C):1
Dew Point: 24.1 F (-4.4 C)
Relative Humidity: 81%
Pressure (altimeter): 29.46 in. Hg (997 hPa)
ob: PATK 271353Z AUTO 01004KT 10SM FEW060 SCT070 OVC095 M02/M04 A2946 RMK AO2 SLP985 T10171044 TSNO
cycle: 14

Station Type Date Time Source
PATK TAF 2020/11/27 12:39 UTC NOAA

TAF PATK 271136Z 2712/2812 36005KT 5SM -SN SCT020 OVC035
TEMPO 2712/2716 2SM -SN BKN020
FM280000 01003KT 4SM -SHSN OVC030
FM280300 02005KT P6SM BKN050

Example: see airport list